Terminal Aerodrome Forecast
Issued by NWS St Louis, MO

Home | Current Version | Previous Version | Text Only | Print | Product List | Glossary On
Versions: 1 2 3 4 5 6 7 8 9 10 11 12 13 14 15 16 17 18 19 20 21 22 23 24 25 26 27
000
FTUS43 KLSX 171606 AAB
TAFSTL
TAF AMD
KSTL 171606Z 1716/1818 27015G23KT P6SM SCT015 OVC022
     FM171800 25012G20KT P6SM OVC015
     FM180000 27009KT P6SM OVC012
     FM180600 29004KT P6SM BKN025
     FM181100 VRB03KT P6SM SCT020=

USA.gov is the U.S. government's official web portal to all federal, state and local government web resources and services.